sensor_id;sensor_type;location;lat;lon;timestamp;pressure;altitude;pressure_sealevel;temperature;humidity
13867;BME280;7003;46.982;15.248;2023-07-13T00:00:30;96986.66;;;19.08;100.00
13867;BME280;7003;46.982;15.248;2023-07-13T00:03:00;96977.03;;;19.10;100.00
13867;BME280;7003;46.982;15.248;2023-07-13T00:05:27;96985.09;;;19.00;100.00
13867;BME280;7003;46.982;15.248;2023-07-13T00:07:57;96993.13;;;18.82;100.00
13867;BME280;7003;46.982;15.248;2023-07-13T00:10:28;96986.63;;;19.01;100.00
13867;BME280;7003;46.982;15.248;2023-07-13T00:12:56;96980.81;;;18.77;100.00
13867;BME280;7003;46.982;15.248;2023-07-13T00:15:26;96971.19;;;18.73;100.00
13867;BME280;7003;46.982;15.248;2023-07-13T00:17:58;96963.50;;;18.75;100.00
13867;BME280;7003;46.982;15.248;2023-07-13T00:20:29;96959.66;;;18.79;100.00
13867;BME280;7003;46.982;15.248;2023-07-13T00:22:58;96964.69;;;18.88;100.00
13867;BME280;7003;46.982;15.248;2023-07-13T00:25:29;96969.31;;;19.09;100.00
13867;BME280;7003;46.982;15.248;2023-07-13T00:27:58;96973.56;;;18.96;100.00
13867;BME280;7003;46.982;15.248;2023-07-13T00:30:26;96940.41;;;18.99;100.00
13867;BME280;7003;46.982;15.248;2023-07-13T00:32:55;96928.50;;;19.00;100.00
13867;BME280;7003;46.982;15.248;2023-07-13T00:35:25;96921.56;;;18.92;100.00
13867;BME280;7003;46.982;15.248;2023-07-13T00:37:55;96916.56;;;18.87;100.00
13867;BME280;7003;46.982;15.248;2023-07-13T00:40:24;96932.72;;;18.83;100.00
13867;BME280;7003;46.982;15.248;2023-07-13T00:42:57;96925.75;;;18.61;100.00
13867;BME280;7003;46.982;15.248;2023-07-13T00:48:33;96910.38;;;18.68;100.00
13867;BME280;7003;46.982;15.248;2023-07-13T00:51:02;96918.09;;;18.73;100.00
13867;BME280;7003;46.982;15.248;2023-07-13T00:53:31;96899.59;;;18.61;100.00
13867;BME280;7003;46.982;15.248;2023-07-13T00:55:59;96869.56;;;18.63;100.00
13867;BME280;7003;46.982;15.248;2023-07-13T00:58:29;96839.19;;;18.62;100.00
13867;BME280;7003;46.982;15.248;2023-07-13T01:00:56;96841.09;;;18.72;100.00
13867;BME280;7003;46.982;15.248;2023-07-13T01:03:26;96865.72;;;18.74;100.00
13867;BME280;7003;46.982;15.248;2023-07-13T01:05:56;96890.75;;;18.78;100.00
13867;BME280;7003;46.982;15.248;2023-07-13T01:08:25;96932.72;;;18.87;100.00
13867;BME280;7003;46.982;15.248;2023-07-13T01:10:54;96975.84;;;19.08;100.00
13867;BME280;7003;46.982;15.248;2023-07-13T01:13:21;96977.41;;;19.19;100.00
13867;BME280;7003;46.982;15.248;2023-07-13T01:15:55;96965.47;;;19.03;100.00
13867;BME280;7003;46.982;15.248;2023-07-13T01:18:26;96960.44;;;18.94;100.00
13867;BME280;7003;46.982;15.248;2023-07-13T01:21:00;96970.06;;;18.92;100.00
13867;BME280;7003;46.982;15.248;2023-07-13T01:23:30;96978.53;;;18.79;100.00
13867;BME280;7003;46.982;15.248;2023-07-13T01:25:58;96990.44;;;18.82;100.00
13867;BME280;7003;46.982;15.248;2023-07-13T01:28:29;97018.19;;;18.90;100.00
13867;BME280;7003;46.982;15.248;2023-07-13T01:30:58;97040.38;;;18.55;100.00
13867;BME280;7003;46.982;15.248;2023-07-13T01:33:25;97067.44;;;18.72;100.00
13867;BME280;7003;46.982;15.248;2023-07-13T01:35:55;97095.75;;;18.49;100.00
13867;BME280;7003;46.982;15.248;2023-07-13T01:38:25;97108.06;;;18.42;100.00
13867;BME280;7003;46.982;15.248;2023-07-13T01:40:53;97120.84;;;18.60;100.00
13867;BME280;7003;46.982;15.248;2023-07-13T01:43:20;97139.19;;;18.40;100.00
13867;BME280;7003;46.982;15.248;2023-07-13T01:45:48;97170.47;;;18.59;100.00
13867;BME280;7003;46.982;15.248;2023-07-13T01:48:17;97207.09;;;18.63;100.00
13867;BME280;7003;46.982;15.248;2023-07-13T01:50:48;97230.59;;;18.70;100.00
13867;BME280;7003;46.982;15.248;2023-07-13T01:53:17;97268.00;;;18.78;100.00
13867;BME280;7003;46.982;15.248;2023-07-13T01:55:49;97279.91;;;18.77;100.00
13867;BME280;7003;46.982;15.248;2023-07-13T01:58:17;97292.97;;;18.75;100.00
13867;BME280;7003;46.982;15.248;2023-07-13T02:00:48;97303.06;;;18.86;100.00
13867;BME280;7003;46.982;15.248;2023-07-13T02:03:15;97307.28;;;18.79;100.00
13867;BME280;7003;46.982;15.248;2023-07-13T02:05:46;97300.41;;;18.93;100.00
13867;BME280;7003;46.982;15.248;2023-07-13T02:08:13;97295.44;;;18.95;100.00
13867;BME280;7003;46.982;15.248;2023-07-13T02:10:43;97290.41;;;18.93;100.00
13867;BME280;7003;46.982;15.248;2023-07-13T02:13:13;97267.72;;;18.98;100.00
13867;BME280;7003;46.982;15.248;2023-07-13T02:15:41;97282.34;;;18.93;100.00
13867;BME280;7003;46.982;15.248;2023-07-13T02:18:11;97243.09;;;18.96;100.00
13867;BME280;7003;46.982;15.248;2023-07-13T02:20:45;97262.28;;;18.91;100.00
13867;BME280;7003;46.982;15.248;2023-07-13T02:23:12;97214.59;;;19.02;100.00
13867;BME280;7003;46.982;15.248;2023-07-13T02:25:42;97173.81;;;19.03;100.00
13867;BME280;7003;46.982;15.248;2023-07-13T02:28:09;97139.88;;;18.99;100.00
13867;BME280;7003;46.982;15.248;2023-07-13T02:30:41;97112.91;;;18.88;100.00
13867;BME280;7003;46.982;15.248;2023-07-13T02:33:10;97087.41;;;18.68;100.00
13867;BME280;7003;46.982;15.248;2023-07-13T02:35:40;97080.53;;;18.77;100.00
13867;BME280;7003;46.982;15.248;2023-07-13T02:38:07;97091.94;;;18.50;100.00
13867;BME280;7003;46.982;15.248;2023-07-13T02:40:34;97073.34;;;18.27;100.00
13867;BME280;7003;46.982;15.248;2023-07-13T02:43:02;97076.38;;;18.22;100.00
13867;BME280;7003;46.982;15.248;2023-07-13T02:45:29;97076.38;;;18.22;100.00
13867;BME280;7003;46.982;15.248;2023-07-13T02:47:57;97096.72;;;18.16;100.00
13867;BME280;7003;46.982;15.248;2023-07-13T02:50:27;97120.19;;;18.15;100.00
13867;BME280;7003;46.982;15.248;2023-07-13T02:52:54;97140.16;;;18.14;100.00
13867;BME280;7003;46.982;15.248;2023-07-13T02:55:21;97177.44;;;18.12;100.00
13867;BME280;7003;46.982;15.248;2023-07-13T02:57:48;97231.59;;;18.03;100.00
13867;BME280;7003;46.982;15.248;2023-07-13T03:00:16;97258.84;;;17.98;100.00
13867;BME280;7003;46.982;15.248;2023-07-13T03:02:47;97273.59;;;18.12;100.00
13867;BME280;7003;46.982;15.248;2023-07-13T03:05:19;97320.66;;;17.88;100.00
13867;BME280;7003;46.982;15.248;2023-07-13T03:07:46;97264.53;;;17.90;100.00
13867;BME280;7003;46.982;15.248;2023-07-13T03:10:13;97306.50;;;17.98;100.00
13867;BME280;7003;46.982;15.248;2023-07-13T03:12:41;97269.28;;;18.03;100.00
13867;BME280;7003;46.982;15.248;2023-07-13T03:15:09;97270.13;;;18.11;100.00
13867;BME280;7003;46.982;15.248;2023-07-13T03:17:39;97254.16;;;18.32;100.00
13867;BME280;7003;46.982;15.248;2023-07-13T03:20:10;97249.44;;;18.22;100.00
13867;BME280;7003;46.982;15.248;2023-07-13T03:22:41;97221.00;;;18.25;100.00
13867;BME280;7003;46.982;15.248;2023-07-13T03:25:08;97155.47;;;18.03;100.00
13867;BME280;7003;46.982;15.248;2023-07-13T03:27:37;97076.59;;;17.95;100.00
13867;BME280;7003;46.982;15.248;2023-07-13T03:30:08;96998.94;;;17.94;100.00
13867;BME280;7003;46.982;15.248;2023-07-13T03:32:38;96952.47;;;18.07;100.00
13867;BME280;7003;46.982;15.248;2023-07-13T03:35:09;96922.03;;;17.93;100.00
13867;BME280;7003;46.982;15.248;2023-07-13T03:37:41;96894.34;;;17.89;100.00
13867;BME280;7003;46.982;15.248;2023-07-13T03:40:12;96873.63;;;18.00;100.00
13867;BME280;7003;46.982;15.248;2023-07-13T03:42:39;96888.63;;;17.94;100.00
13867;BME280;7003;46.982;15.248;2023-07-13T03:45:09;96919.38;;;18.00;100.00
13867;BME280;7003;46.982;15.248;2023-07-13T03:47:47;96965.25;;;17.59;100.00
13867;BME280;7003;46.982;15.248;2023-07-13T03:50:17;96982.00;;;17.39;100.00
13867;BME280;7003;46.982;15.248;2023-07-13T03:52:48;96998.88;;;17.32;100.00
13867;BME280;7003;46.982;15.248;2023-07-13T03:55:17;97017.03;;;17.46;100.00
13867;BME280;7003;46.982;15.248;2023-07-13T03:57:45;97035.84;;;17.46;100.00
13867;BME280;7003;46.982;15.248;2023-07-13T04:00:15;97035.88;;;17.49;100.00
13867;BME280;7003;46.982;15.248;2023-07-13T04:02:43;97057.00;;;17.47;100.00
13867;BME280;7003;46.982;15.248;2023-07-13T04:05:13;97069.00;;;17.60;100.00
13867;BME280;7003;46.982;15.248;2023-07-13T04:07:43;97082.03;;;17.55;100.00
13867;BME280;7003;46.982;15.248;2023-07-13T04:10:16;97090.69;;;17.78;100.00
13867;BME280;7003;46.982;15.248;2023-07-13T04:12:47;97093.75;;;17.77;100.00
13867;BME280;7003;46.982;15.248;2023-07-13T04:15:15;97103.34;;;17.74;100.00
13867;BME280;7003;46.982;15.248;2023-07-13T04:17:43;97101.78;;;17.69;100.00
13867;BME280;7003;46.982;15.248;2023-07-13T04:20:11;97106.47;;;17.83;100.00
13867;BME280;7003;46.982;15.248;2023-07-13T04:22:39;97106.44;;;17.76;100.00
13867;BME280;7003;46.982;15.248;2023-07-13T04:25:11;97114.97;;;17.85;100.00
13867;BME280;7003;46.982;15.248;2023-07-13T04:27:42;97114.59;;;17.90;100.00
13867;BME280;7003;46.982;15.248;2023-07-13T04:30:11;97114.22;;;17.88;100.00
13867;BME280;7003;46.982;15.248;2023-07-13T04:32:41;97115.41;;;17.94;100.00
13867;BME280;7003;46.982;15.248;2023-07-13T04:35:09;97118.13;;;17.98;100.00
13867;BME280;7003;46.982;15.248;2023-07-13T04:37:40;97119.78;;;18.13;100.00
13867;BME280;7003;46.982;15.248;2023-07-13T04:40:09;97108.22;;;18.13;100.00
13867;BME280;7003;46.982;15.248;2023-07-13T04:42:38;97112.19;;;18.29;100.00
13867;BME280;7003;46.982;15.248;2023-07-13T04:45:11;97119.84;;;18.27;100.00
13867;BME280;7003;46.982;15.248;2023-07-13T04:47:39;97121.44;;;18.32;100.00
13867;BME280;7003;46.982;15.248;2023-07-13T04:50:12;97117.25;;;18.38;100.00
13867;BME280;7003;46.982;15.248;2023-07-13T04:52:48;97109.53;;;18.33;100.00
13867;BME280;7003;46.982;15.248;2023-07-13T04:55:18;97104.91;;;18.33;100.00
13867;BME280;7003;46.982;15.248;2023-07-13T04:57:49;97096.88;;;18.44;100.00
13867;BME280;7003;46.982;15.248;2023-07-13T05:00:19;97102.75;;;18.57;100.00
13867;BME280;7003;46.982;15.248;2023-07-13T05:02:48;97079.00;;;18.80;100.00
13867;BME280;7003;46.982;15.248;2023-07-13T05:05:16;97083.63;;;18.87;100.00
13867;BME280;7003;46.982;15.248;2023-07-13T05:07:44;97090.66;;;19.19;100.00
13867;BME280;7003;46.982;15.248;2023-07-13T05:10:15;97089.06;;;19.01;100.00
13867;BME280;7003;46.982;15.248;2023-07-13T05:12:45;97089.50;;;19.17;100.00
13867;BME280;7003;46.982;15.248;2023-07-13T05:15:20;97085.28;;;19.30;100.00
13867;BME280;7003;46.982;15.248;2023-07-13T05:17:49;97088.38;;;19.46;100.00
13867;BME280;7003;46.982;15.248;2023-07-13T05:20:20;97084.19;;;19.81;100.00
13867;BME280;7003;46.982;15.248;2023-07-13T05:22:51;97072.59;;;20.09;100.00
13867;BME280;7003;46.982;15.248;2023-07-13T05:25:22;97084.53;;;20.36;100.00
13867;BME280;7003;46.982;15.248;2023-07-13T05:27:50;97077.94;;;20.41;100.00
13867;BME280;7003;46.982;15.248;2023-07-13T05:30:23;97069.66;;;20.83;100.00
13867;BME280;7003;46.982;15.248;2023-07-13T05:32:51;97059.50;;;21.12;100.00
13867;BME280;7003;46.982;15.248;2023-07-13T05:35:19;97065.66;;;21.20;100.00
13867;BME280;7003;46.982;15.248;2023-07-13T05:37:49;97067.69;;;21.60;100.00
13867;BME280;7003;46.982;15.248;2023-07-13T05:40:18;97058.88;;;21.94;100.00
13867;BME280;7003;46.982;15.248;2023-07-13T05:42:46;97068.13;;;22.00;100.00
13867;BME280;7003;46.982;15.248;2023-07-13T05:45:14;97065.59;;;22.23;100.00
13867;BME280;7003;46.982;15.248;2023-07-13T05:47:46;97066.72;;;22.29;100.00
13867;BME280;7003;46.982;15.248;2023-07-13T05:50:14;97073.13;;;22.42;100.00
13867;BME280;7003;46.982;15.248;2023-07-13T05:52:45;97080.72;;;22.20;100.00
13867;BME280;7003;46.982;15.248;2023-07-13T05:55:13;97081.06;;;22.26;100.00
13867;BME280;7003;46.982;15.248;2023-07-13T05:57:44;97086.75;;;22.35;100.00
13867;BME280;7003;46.982;15.248;2023-07-13T06:00:12;97087.09;;;22.41;100.00
13867;BME280;7003;46.982;15.248;2023-07-13T06:02:41;97088.09;;;22.54;100.00
13867;BME280;7003;46.982;15.248;2023-07-13T06:05:11;97084.84;;;22.32;100.00
13867;BME280;7003;46.982;15.248;2023-07-13T06:07:42;97085.63;;;22.33;100.00
13867;BME280;7003;46.982;15.248;2023-07-13T06:10:11;97098.53;;;22.55;100.00
13867;BME280;7003;46.982;15.248;2023-07-13T06:12:41;97108.38;;;22.80;100.00
13867;BME280;7003;46.982;15.248;2023-07-13T06:15:12;97108.16;;;22.97;100.00
13867;BME280;7003;46.982;15.248;2023-07-13T06:17:40;97114.75;;;22.96;100.00
13867;BME280;7003;46.982;15.248;2023-07-13T06:20:08;97109.13;;;23.11;100.00
13867;BME280;7003;46.982;15.248;2023-07-13T06:22:40;97108.91;;;22.98;100.00
13867;BME280;7003;46.982;15.248;2023-07-13T06:25:10;97117.91;;;23.22;100.00
13867;BME280;7003;46.982;15.248;2023-07-13T06:27:39;97111.22;;;23.57;100.00
13867;BME280;7003;46.982;15.248;2023-07-13T06:30:08;97105.00;;;23.60;100.00
13867;BME280;7003;46.982;15.248;2023-07-13T06:32:36;97107.63;;;23.36;100.00
13867;BME280;7003;46.982;15.248;2023-07-13T06:35:04;97098.50;;;23.23;100.00
13867;BME280;7003;46.982;15.248;2023-07-13T06:37:32;97098.44;;;23.27;100.00
13867;BME280;7003;46.982;15.248;2023-07-13T06:40:00;97100.09;;;23.21;100.00
13867;BME280;7003;46.982;15.248;2023-07-13T06:42:29;97109.28;;;23.30;100.00
13867;BME280;7003;46.982;15.248;2023-07-13T06:44:57;97109.16;;;23.91;100.00
13867;BME280;7003;46.982;15.248;2023-07-13T06:47:24;97115.66;;;23.97;100.00
13867;BME280;7003;46.982;15.248;2023-07-13T06:49:54;97113.19;;;24.30;100.00
13867;BME280;7003;46.982;15.248;2023-07-13T06:52:21;97104.19;;;24.33;100.00
13867;BME280;7003;46.982;15.248;2023-07-13T06:54:51;97116.13;;;24.39;100.00
13867;BME280;7003;46.982;15.248;2023-07-13T06:57:23;97118.41;;;24.40;100.00
13867;BME280;7003;46.982;15.248;2023-07-13T06:59:51;97129.72;;;24.39;100.00
13867;BME280;7003;46.982;15.248;2023-07-13T07:02:20;97130.47;;;24.39;100.00
13867;BME280;7003;46.982;15.248;2023-07-13T07:04:48;97127.81;;;24.12;100.00
13867;BME280;7003;46.982;15.248;2023-07-13T07:07:19;97134.03;;;24.36;100.00
13867;BME280;7003;46.982;15.248;2023-07-13T07:09:46;97141.41;;;24.36;100.00
13867;BME280;7003;46.982;15.248;2023-07-13T07:12:13;97143.75;;;24.10;100.00
13867;BME280;7003;46.982;15.248;2023-07-13T07:14:42;97137.66;;;24.03;100.00
13867;BME280;7003;46.982;15.248;2023-07-13T07:17:10;97129.22;;;23.97;100.00
13867;BME280;7003;46.982;15.248;2023-07-13T07:19:38;97128.50;;;24.16;100.00
13867;BME280;7003;46.982;15.248;2023-07-13T07:22:06;97124.81;;;24.30;100.00
13867;BME280;7003;46.982;15.248;2023-07-13T07:24:33;97124.06;;;24.30;100.00
13867;BME280;7003;46.982;15.248;2023-07-13T07:27:01;97116.69;;;24.03;100.00
13867;BME280;7003;46.982;15.248;2023-07-13T07:29:31;97107.63;;;23.90;100.00
13867;BME280;7003;46.982;15.248;2023-07-13T07:32:04;97098.72;;;24.09;100.00
13867;BME280;7003;46.982;15.248;2023-07-13T07:34:34;97101.81;;;24.11;100.00
13867;BME280;7003;46.982;15.248;2023-07-13T07:37:02;97089.25;;;24.21;100.00
13867;BME280;7003;46.982;15.248;2023-07-13T07:39:32;97087.47;;;24.34;100.00
13867;BME280;7003;46.982;15.248;2023-07-13T07:42:02;97084.75;;;24.34;100.00
13867;BME280;7003;46.982;15.248;2023-07-13T07:44:30;97095.06;;;24.20;100.00
13867;BME280;7003;46.982;15.248;2023-07-13T07:47:03;97097.91;;;24.12;100.00
13867;BME280;7003;46.982;15.248;2023-07-13T07:49:30;97102.88;;;24.41;100.00
13867;BME280;7003;46.982;15.248;2023-07-13T07:51:57;97114.66;;;24.74;100.00
13867;BME280;7003;46.982;15.248;2023-07-13T07:54:25;97110.69;;;24.78;100.00
13867;BME280;7003;46.982;15.248;2023-07-13T07:56:52;97116.38;;;25.07;100.00
13867;BME280;7003;46.982;15.248;2023-07-13T07:59:22;97112.31;;;24.96;100.00
13867;BME280;7003;46.982;15.248;2023-07-13T08:01:53;97113.91;;;25.13;100.00
13867;BME280;7003;46.982;15.248;2023-07-13T08:04:24;97110.19;;;25.23;100.00
13867;BME280;7003;46.982;15.248;2023-07-13T08:06:51;97105.97;;;25.38;100.00
13867;BME280;7003;46.982;15.248;2023-07-13T08:09:19;97119.09;;;25.07;100.00
13867;BME280;7003;46.982;15.248;2023-07-13T08:11:49;97112.09;;;25.42;100.00
13867;BME280;7003;46.982;15.248;2023-07-13T08:14:20;97112.97;;;25.39;100.00
13867;BME280;7003;46.982;15.248;2023-07-13T08:16:51;97110.53;;;25.25;100.00
13867;BME280;7003;46.982;15.248;2023-07-13T08:19:19;97099.16;;;25.30;100.00
13867;BME280;7003;46.982;15.248;2023-07-13T08:21:50;97105.06;;;25.25;100.00
13867;BME280;7003;46.982;15.248;2023-07-13T08:24:18;97097.59;;;25.65;100.00
13867;BME280;7003;46.982;15.248;2023-07-13T08:26:48;97104.81;;;26.04;100.00
13867;BME280;7003;46.982;15.248;2023-07-13T08:29:17;97102.44;;;26.51;100.00
13867;BME280;7003;46.982;15.248;2023-07-13T08:31:45;97115.41;;;26.76;100.00
13867;BME280;7003;46.982;15.248;2023-07-13T08:34:16;97111.25;;;27.00;100.00
13867;BME280;7003;46.982;15.248;2023-07-13T08:36:43;97102.72;;;26.98;100.00
13867;BME280;7003;46.982;15.248;2023-07-13T08:39:14;97106.84;;;26.90;100.00
13867;BME280;7003;46.982;15.248;2023-07-13T08:41:45;97107.38;;;26.85;100.00
13867;BME280;7003;46.982;15.248;2023-07-13T08:44:25;97117.59;;;26.81;100.00
13867;BME280;7003;46.982;15.248;2023-07-13T08:46:56;97117.16;;;26.99;100.00
13867;BME280;7003;46.982;15.248;2023-07-13T08:49:29;97111.56;;;27.02;100.00
13867;BME280;7003;46.982;15.248;2023-07-13T08:52:02;97113.59;;;27.40;100.00
13867;BME280;7003;46.982;15.248;2023-07-13T08:54:37;97103.97;;;27.35;100.00
13867;BME280;7003;46.982;15.248;2023-07-13T08:57:14;97096.63;;;27.07;100.00
13867;BME280;7003;46.982;15.248;2023-07-13T08:59:45;97098.72;;;27.15;100.00
13867;BME280;7003;46.982;15.248;2023-07-13T09:02:26;97090.97;;;27.39;100.00
13867;BME280;7003;46.982;15.248;2023-07-13T09:05:01;97090.31;;;27.35;100.00
13867;BME280;7003;46.982;15.248;2023-07-13T09:07:40;97094.47;;;27.40;100.00
13867;BME280;7003;46.982;15.248;2023-07-13T09:10:15;97105.94;;;27.09;100.00
13867;BME280;7003;46.982;15.248;2023-07-13T09:12:57;97112.09;;;26.56;100.00
13867;BME280;7003;46.982;15.248;2023-07-13T09:15:30;97107.28;;;26.31;100.00
13867;BME280;7003;46.982;15.248;2023-07-13T09:18:02;97113.75;;;26.37;100.00
13867;BME280;7003;46.982;15.248;2023-07-13T09:20:32;97121.16;;;25.72;100.00
13867;BME280;7003;46.982;15.248;2023-07-13T09:23:04;97119.75;;;25.31;100.00
13867;BME280;7003;46.982;15.248;2023-07-13T09:25:36;97120.22;;;25.26;100.00
13867;BME280;7003;46.982;15.248;2023-07-13T09:28:16;97117.09;;;25.27;100.00
13867;BME280;7003;46.982;15.248;2023-07-13T09:30:51;97121.75;;;25.63;100.00
13867;BME280;7003;46.982;15.248;2023-07-13T09:33:23;97116.31;;;25.63;100.00
13867;BME280;7003;46.982;15.248;2023-07-13T09:35:51;97117.53;;;25.62;100.00
13867;BME280;7003;46.982;15.248;2023-07-13T09:38:19;97111.75;;;25.76;100.00
13867;BME280;7003;46.982;15.248;2023-07-13T09:40:59;97118.03;;;25.89;100.00
13867;BME280;7003;46.982;15.248;2023-07-13T09:43:30;97118.16;;;25.50;100.00
13867;BME280;7003;46.982;15.248;2023-07-13T09:45:58;97115.06;;;25.32;100.00
13867;BME280;7003;46.982;15.248;2023-07-13T09:48:34;97124.09;;;25.45;100.00
13867;BME280;7003;46.982;15.248;2023-07-13T09:51:09;97123.41;;;25.77;100.00
13867;BME280;7003;46.982;15.248;2023-07-13T09:53:43;97128.09;;;25.76;100.00
13867;BME280;7003;46.982;15.248;2023-07-13T09:56:21;97136.84;;;26.00;100.00
13867;BME280;7003;46.982;15.248;2023-07-13T09:58:49;97126.38;;;25.98;100.00
13867;BME280;7003;46.982;15.248;2023-07-13T10:01:31;97129.50;;;25.64;100.00
13867;BME280;7003;46.982;15.248;2023-07-13T10:03:59;97131.56;;;25.60;100.00
13867;BME280;7003;46.982;15.248;2023-07-13T10:06:26;97135.09;;;25.57;100.00
13867;BME280;7003;46.982;15.248;2023-07-13T10:08:57;97137.03;;;25.77;100.00
13867;BME280;7003;46.982;15.248;2023-07-13T10:11:28;97122.25;;;25.58;100.00
13867;BME280;7003;46.982;15.248;2023-07-13T10:13:57;97114.03;;;25.42;100.00
13867;BME280;7003;46.982;15.248;2023-07-13T10:16:30;97107.00;;;25.44;100.00
13867;BME280;7003;46.982;15.248;2023-07-13T10:19:03;97102.03;;;25.59;100.00
13867;BME280;7003;46.982;15.248;2023-07-13T10:21:52;97108.13;;;25.63;100.00
13867;BME280;7003;46.982;15.248;2023-07-13T10:24:22;97116.78;;;25.58;100.00
13867;BME280;7003;46.982;15.248;2023-07-13T10:26:55;97104.59;;;25.82;100.00
13867;BME280;7003;46.982;15.248;2023-07-13T10:29:26;97106.88;;;26.16;100.00
13867;BME280;7003;46.982;15.248;2023-07-13T10:31:55;97115.06;;;26.00;100.00
13867;BME280;7003;46.982;15.248;2023-07-13T10:34:23;97114.44;;;26.25;100.00
13867;BME280;7003;46.982;15.248;2023-07-13T10:36:53;97117.25;;;26.21;100.00
13867;BME280;7003;46.982;15.248;2023-07-13T10:39:23;97111.56;;;26.32;100.00
13867;BME280;7003;46.982;15.248;2023-07-13T10:41:59;97104.91;;;26.17;100.00
13867;BME280;7003;46.982;15.248;2023-07-13T10:44:33;97110.69;;;25.86;100.00
13867;BME280;7003;46.982;15.248;2023-07-13T10:47:03;97114.00;;;26.10;100.00
13867;BME280;7003;46.982;15.248;2023-07-13T10:49:33;97124.25;;;26.06;100.00
13867;BME280;7003;46.982;15.248;2023-07-13T10:52:03;97112.75;;;25.98;100.00
13867;BME280;7003;46.982;15.248;2023-07-13T10:54:31;97115.56;;;25.62;100.00
13867;BME280;7003;46.982;15.248;2023-07-13T10:57:15;97115.47;;;25.82;100.00
13867;BME280;7003;46.982;15.248;2023-07-13T10:59:46;97118.19;;;25.82;100.00
13867;BME280;7003;46.982;15.248;2023-07-13T11:02:23;97103.22;;;25.74;100.00
13867;BME280;7003;46.982;15.248;2023-07-13T11:04:55;97094.78;;;25.68;100.00
13867;BME280;7003;46.982;15.248;2023-07-13T11:07:24;97098.72;;;25.84;100.00
13867;BME280;7003;46.982;15.248;2023-07-13T11:09:56;97092.97;;;26.11;100.00
13867;BME280;7003;46.982;15.248;2023-07-13T11:12:50;97092.47;;;25.99;100.00
13867;BME280;7003;46.982;15.248;2023-07-13T11:15:30;97084.97;;;26.03;100.00
13867;BME280;7003;46.982;15.248;2023-07-13T11:18:04;97086.13;;;26.19;100.00
13867;BME280;7003;46.982;15.248;2023-07-13T11:20:36;97089.13;;;26.24;100.00
13867;BME280;7003;46.982;15.248;2023-07-13T11:23:27;97089.53;;;25.94;100.00
13867;BME280;7003;46.982;15.248;2023-07-13T11:25:58;97093.59;;;25.86;100.00
13867;BME280;7003;46.982;15.248;2023-07-13T11:28:32;97086.88;;;25.74;100.00
13867;BME280;7003;46.982;15.248;2023-07-13T11:31:14;97078.63;;;25.61;100.00
13867;BME280;7003;46.982;15.248;2023-07-13T11:33:54;97077.31;;;25.50;100.00
13867;BME280;7003;46.982;15.248;2023-07-13T11:36:27;97082.75;;;25.50;100.00
13867;BME280;7003;46.982;15.248;2023-07-13T11:39:02;97092.19;;;25.45;100.00
13867;BME280;7003;46.982;15.248;2023-07-13T11:41:36;97096.66;;;25.19;100.00
13867;BME280;7003;46.982;15.248;2023-07-13T11:44:12;97089.47;;;25.09;100.00
13867;BME280;7003;46.982;15.248;2023-07-13T11:46:44;97079.88;;;25.05;100.00
13867;BME280;7003;46.982;15.248;2023-07-13T11:49:15;97075.03;;;25.12;100.00
13867;BME280;7003;46.982;15.248;2023-07-13T11:51:43;97064.91;;;25.13;100.00
13867;BME280;7003;46.982;15.248;2023-07-13T11:54:25;97077.19;;;25.21;100.00
13867;BME280;7003;46.982;15.248;2023-07-13T11:56:55;97073.53;;;25.27;100.00
13867;BME280;7003;46.982;15.248;2023-07-13T11:59:25;97080.78;;;25.34;100.00
13867;BME280;7003;46.982;15.248;2023-07-13T12:01:55;97069.09;;;25.34;100.00
13867;BME280;7003;46.982;15.248;2023-07-13T12:04:29;97057.56;;;25.46;100.00
13867;BME280;7003;46.982;15.248;2023-07-13T12:07:04;97055.63;;;25.46;100.00
13867;BME280;7003;46.982;15.248;2023-07-13T12:09:33;97051.69;;;25.47;100.00
13867;BME280;7003;46.982;15.248;2023-07-13T12:12:10;97040.22;;;25.40;100.00
13867;BME280;7003;46.982;15.248;2023-07-13T12:14:40;97039.69;;;25.28;100.00
13867;BME280;7003;46.982;15.248;2023-07-13T12:17:16;97039.16;;;25.17;100.00
13867;BME280;7003;46.982;15.248;2023-07-13T12:19:47;97048.94;;;25.15;100.00
13867;BME280;7003;46.982;15.248;2023-07-13T12:22:16;97045.84;;;24.97;100.00
13867;BME280;7003;46.982;15.248;2023-07-13T12:24:48;97034.22;;;25.12;100.00
13867;BME280;7003;46.982;15.248;2023-07-13T12:27:19;97029.28;;;25.07;100.00
13867;BME280;7003;46.982;15.248;2023-07-13T12:29:57;97028.19;;;24.85;100.00
13867;BME280;7003;46.982;15.248;2023-07-13T12:32:28;97045.38;;;24.62;100.00
13867;BME280;7003;46.982;15.248;2023-07-13T12:35:07;97036.16;;;24.56;100.00
13867;BME280;7003;46.982;15.248;2023-07-13T12:37:41;97048.50;;;24.41;100.00
13867;BME280;7003;46.982;15.248;2023-07-13T12:40:13;97049.81;;;24.33;100.00
13867;BME280;7003;46.982;15.248;2023-07-13T12:42:43;97054.34;;;24.16;100.00
13867;BME280;7003;46.982;15.248;2023-07-13T12:45:19;97064.72;;;24.01;100.00
13867;BME280;7003;46.982;15.248;2023-07-13T12:47:49;97083.53;;;23.69;100.00
13867;BME280;7003;46.982;15.248;2023-07-13T12:50:21;97091.78;;;23.31;100.00
13867;BME280;7003;46.982;15.248;2023-07-13T12:52:51;97102.53;;;23.12;100.00
13867;BME280;7003;46.982;15.248;2023-07-13T12:55:22;97103.34;;;23.09;100.00
13867;BME280;7003;46.982;15.248;2023-07-13T12:57:54;97118.75;;;23.15;100.00
13867;BME280;7003;46.982;15.248;2023-07-13T13:00:29;97121.03;;;22.90;100.00
13867;BME280;7003;46.982;15.248;2023-07-13T13:03:05;97127.63;;;22.89;100.00
13867;BME280;7003;46.982;15.248;2023-07-13T13:05:36;97130.84;;;22.77;100.00
13867;BME280;7003;46.982;15.248;2023-07-13T13:08:04;97139.47;;;22.68;100.00
13867;BME280;7003;46.982;15.248;2023-07-13T13:10:32;97131.22;;;22.41;100.00